Time;durP1;ratioP1;P1;durP2;ratioP2;P2;SDS_P1;SDS_P2;PMS_P1;PMS_P2;Temp;Humidity;BMP_temperature;BMP_pressure;BME280_temperature;BME280_humidity;BME280_pressure;Samples;Min_cycle;Max_cycle;Signal;HPM_P1;HPM_P2
2020/12/12 00:01:44;;;;;;;12.90;9.13;;;6.80;93.20;;;6.37;87.84;96028.97;5070175;28;21021;-68
2020/12/12 00:04:16;;;;;;;13.00;8.90;;;6.80;93.20;;;6.40;88.24;96023.53;5073790;28;20644;-68
2020/12/12 00:06:45;;;;;;;14.73;9.50;;;6.80;93.30;;;6.39;88.17;96027.09;5063332;28;20730;-68
2020/12/12 00:09:15;;;;;;;14.93;9.50;;;6.90;93.30;;;6.39;87.93;96026.25;5063241;28;20690;-67
2020/12/12 00:11:42;;;;;;;16.40;10.43;;;6.80;93.20;;;6.36;88.02;96019.59;5056200;28;21187;-67
2020/12/12 00:14:10;;;;;;;15.20;9.37;;;6.80;93.20;;;6.36;88.06;96022.19;5071736;28;21213;-68
2020/12/12 00:16:38;;;;;;;16.27;9.53;;;6.80;93.30;;;6.38;88.18;96014.28;5062722;28;20747;-67
2020/12/12 00:19:07;;;;;;;13.90;9.50;;;6.80;93.40;;;6.38;88.51;96017.69;5066091;28;20648;-67
2020/12/12 00:21:35;;;;;;;14.20;9.63;;;6.80;93.40;;;6.39;88.06;96024.53;5062494;28;20636;-68
2020/12/12 00:24:03;;;;;;;14.67;10.00;;;6.80;93.40;;;6.40;87.89;96014.97;5058843;28;20652;-68
2020/12/12 00:26:30;;;;;;;14.23;9.40;;;6.80;93.30;;;6.38;88.34;96015.09;5067850;28;20677;-67
2020/12/12 00:28:58;;;;;;;13.20;9.53;;;6.80;93.40;;;6.39;87.42;96010.72;5070931;28;20632;-68
2020/12/12 00:31:25;;;;;;;13.20;9.07;;;6.80;93.40;;;6.38;88.29;96007.34;5070541;28;20652;-68
2020/12/12 00:33:53;;;;;;;12.27;9.30;;;6.80;93.50;;;6.37;87.70;96010.88;5069729;28;21235;-68
2020/12/12 00:36:21;;;;;;;13.10;8.70;;;6.80;93.40;;;6.34;88.08;96010.31;5059981;28;20650;-67
2020/12/12 00:38:49;;;;;;;13.80;9.23;;;6.80;93.30;;;6.32;88.03;96007.06;5057576;28;20717;-68
2020/12/12 00:41:17;;;;;;;13.77;9.93;;;6.80;93.40;;;6.31;88.08;96011.38;5059727;28;20635;-68
2020/12/12 00:43:44;;;;;;;15.07;9.50;;;6.80;93.40;;;6.30;88.18;96017.53;5072331;28;21154;-68
2020/12/12 00:46:12;;;;;;;14.33;9.47;;;6.80;93.40;;;6.33;88.39;96013.84;5058994;28;20632;-68
2020/12/12 00:48:40;;;;;;;15.60;9.80;;;6.80;93.50;;;6.33;88.48;96019.03;5066319;28;20640;-68
2020/12/12 00:51:07;;;;;;;14.60;9.70;;;6.80;93.60;;;6.35;88.50;96017.94;5058456;28;20668;-68
2020/12/12 00:53:36;;;;;;;15.77;9.07;;;6.80;93.60;;;6.36;88.37;96018.75;5055368;28;20631;-68
2020/12/12 00:56:03;;;;;;;13.93;9.13;;;6.80;93.90;;;6.38;88.55;96022.06;5057924;28;21289;-68
2020/12/12 00:58:31;;;;;;;15.97;9.87;;;6.80;93.50;;;6.37;88.03;96018.63;5066310;28;21011;-68
2020/12/12 01:00:58;;;;;;;13.20;9.50;;;6.80;93.40;;;6.38;88.25;96012.50;5057945;28;20681;-68
2020/12/12 01:03:26;;;;;;;12.87;9.00;;;6.80;93.60;;;6.41;88.17;96025.19;5054422;28;20657;-68
2020/12/12 01:05:53;;;;;;;13.20;8.57;;;6.80;93.50;;;6.40;88.12;96010.59;5055134;28;21222;-68
2020/12/12 01:08:21;;;;;;;12.73;9.17;;;6.80;93.50;;;6.40;88.17;96015.78;5067841;28;20681;-68
2020/12/12 01:10:49;;;;;;;15.27;9.50;;;6.80;93.60;;;6.41;88.41;96014.84;5060451;28;21267;-68
2020/12/12 01:13:17;;;;;;;15.20;9.20;;;6.80;93.60;;;6.40;88.30;96009.78;5071303;28;20704;-68
2020/12/12 01:15:45;;;;;;;12.03;9.10;;;6.80;93.70;;;6.40;89.06;96014.97;5066509;28;20657;-67
2020/12/12 01:18:13;;;;;;;12.20;8.27;;;6.80;93.80;;;6.39;88.36;96021.09;5070822;28;20747;-67
2020/12/12 01:20:41;;;;;;;13.77;9.60;;;6.80;93.60;;;6.36;88.40;96024.78;5063483;28;20730;-68
2020/12/12 01:23:09;;;;;;;14.37;9.77;;;6.80;93.80;;;6.40;89.07;96025.31;5072518;28;20638;-68
2020/12/12 01:25:37;;;;;;;13.60;9.97;;;6.80;94.00;;;6.40;89.28;96012.38;5062380;28;20803;-68
2020/12/12 01:28:06;;;;;;;14.13;9.90;;;6.80;94.10;;;6.42;89.22;96011.31;5057296;28;20739;-68
2020/12/12 01:30:35;;;;;;;12.90;8.57;;;6.80;94.10;;;6.42;88.54;96011.31;5058488;28;20642;-68
2020/12/12 01:33:03;;;;;;;13.47;8.73;;;6.90;94.00;;;6.41;88.53;96012.25;5063095;28;20649;-68
2020/12/12 01:35:31;;;;;;;14.23;8.97;;;6.80;93.80;;;6.45;88.31;96008.47;5057331;28;20656;-68
2020/12/12 01:37:58;;;;;;;11.93;7.63;;;6.90;93.80;;;6.44;87.45;96017.16;5062101;28;20664;-68
2020/12/12 01:40:26;;;;;;;10.83;7.10;;;6.90;93.60;;;6.47;87.57;96016.91;5061918;28;20747;-68
2020/12/12 01:42:53;;;;;;;11.90;7.63;;;6.90;93.60;;;6.52;87.92;96019.91;5063297;28;21180;-68
2020/12/12 01:45:22;;;;;;;11.53;7.40;;;6.90;93.40;;;6.58;87.53;96019.38;5069476;28;20659;-67
2020/12/12 01:47:51;;;;;;;11.13;7.67;;;7.00;93.30;;;6.64;87.00;96021.47;5040837;28;20629;-68
2020/12/12 01:50:21;;;;;;;15.07;8.40;;;7.00;93.20;;;6.70;87.19;96023.53;5067689;28;21170;-68
2020/12/12 01:52:50;;;;;;;13.03;8.03;;;7.10;93.10;;;6.73;86.91;96028.44;5062253;28;20742;-67
2020/12/12 01:55:20;;;;;;;14.87;9.60;;;7.10;93.00;;;6.71;86.79;96023.38;5055738;28;20646;-67
2020/12/12 01:57:50;;;;;;;15.30;9.73;;;7.10;92.90;;;6.64;86.91;96029.22;5070232;28;21242;-68
2020/12/12 02:00:18;;;;;;;17.30;9.60;;;7.00;93.00;;;6.64;87.19;96026.63;5053758;28;20633;-68
2020/12/12 02:02:49;;;;;;;11.20;8.13;;;7.00;93.10;;;6.63;87.43;96032.75;5061266;28;20726;-68
2020/12/12 02:05:39;;;;;;;12.27;8.80;;;7.00;93.30;;;6.64;87.65;96024.84;5066966;28;20644;-68
2020/12/12 02:08:10;;;;;;;11.97;8.27;;;7.00;93.30;;;6.67;88.36;96028.97;5059527;28;20691;-68
2020/12/12 02:10:39;;;;;;;12.87;8.70;;;7.10;93.40;;;6.68;87.29;96028.81;5062952;28;20651;-67
2020/12/12 02:13:08;;;;;;;12.00;8.63;;;7.10;93.10;;;6.72;86.97;96026.78;5067316;28;20633;-67
2020/12/12 02:15:37;;;;;;;13.60;8.50;;;7.20;93.00;;;6.74;87.05;96030.09;5055983;28;20649;-67
2020/12/12 02:18:07;;;;;;;13.80;8.20;;;7.20;92.70;;;6.76;86.24;96023.00;5065786;28;20650;-68
2020/12/12 02:20:35;;;;;;;13.10;8.80;;;7.20;93.10;;;6.79;86.48;96025.31;5066787;28;20635;-68
2020/12/12 02:23:04;;;;;;;12.20;7.77;;;7.20;92.70;;;6.83;86.72;96029.28;5066548;28;21003;-68
2020/12/12 02:25:31;;;;;;;14.37;9.20;;;7.20;92.70;;;6.80;86.31;96030.38;5061079;28;20640;-68
2020/12/12 02:27:59;;;;;;;15.73;9.87;;;7.20;92.70;;;6.75;87.51;96031.69;5062679;28;20641;-68
2020/12/12 02:30:27;;;;;;;15.53;9.20;;;7.20;92.80;;;6.67;86.91;96026.38;5059465;28;20637;-68
2020/12/12 02:32:54;;;;;;;15.03;9.20;;;7.10;92.90;;;6.66;87.55;96030.75;5065844;28;20658;-68
2020/12/12 02:35:22;;;;;;;14.80;9.27;;;7.10;93.00;;;6.71;87.21;96030.34;5051610;28;20638;-68
2020/12/12 02:37:49;;;;;;;13.17;9.20;;;7.10;93.10;;;6.72;87.69;96024.19;5065971;28;20751;-68
2020/12/12 02:40:17;;;;;;;14.03;8.30;;;7.10;93.10;;;6.74;87.29;96017.94;5058040;28;20632;-68
2020/12/12 02:42:45;;;;;;;15.03;9.70;;;7.20;93.20;;;6.74;87.58;96019.72;5060674;28;20645;-68
2020/12/12 02:45:13;;;;;;;19.27;10.97;;;7.20;93.20;;;6.70;87.33;96026.09;5055831;28;20636;-68
2020/12/12 02:47:42;;;;;;;22.03;12.13;;;7.10;93.20;;;6.65;88.11;96016.16;5064558;28;20671;-69
2020/12/12 02:50:13;;;;;;;23.77;12.10;;;7.10;93.30;;;6.65;87.98;96025.69;5061837;28;20648;-68
2020/12/12 02:52:45;;;;;;;24.30;13.13;;;7.10;93.40;;;6.64;87.75;96024.84;5052109;28;20742;-68
2020/12/12 02:55:12;;;;;;;19.90;11.70;;;7.10;93.40;;;6.63;87.98;96015.47;5054354;28;20719;-68
2020/12/12 02:57:41;;;;;;;15.47;9.13;;;7.10;93.50;;;6.63;87.65;96012.88;5057252;28;20744;-68
2020/12/12 03:00:12;;;;;;;17.93;11.17;;;7.10;93.50;;;6.62;88.48;96015.59;5060516;28;21263;-68
2020/12/12 03:02:39;;;;;;;16.27;10.43;;;7.00;93.40;;;6.60;87.65;96015.72;5069243;28;20644;-68
2020/12/12 03:05:08;;;;;;;19.63;11.50;;;7.10;93.40;;;6.60;88.23;96009.75;5060523;28;20671;-68
2020/12/12 03:07:36;;;;;;;22.53;11.53;;;7.10;93.40;;;6.58;88.33;96014.22;5056308;28;21183;-68
2020/12/12 03:10:06;;;;;;;21.50;12.23;;;7.00;93.40;;;6.58;88.45;96017.66;5056245;28;20655;-67
2020/12/12 03:12:35;;;;;;;20.63;11.80;;;7.00;93.50;;;6.58;88.50;96020.22;5064809;28;20630;-68
2020/12/12 03:15:06;;;;;;;20.73;11.40;;;7.00;93.50;;;6.59;87.99;96015.88;5057936;28;21190;-68
2020/12/12 03:17:35;;;;;;;20.13;11.43;;;7.10;93.60;;;6.60;88.25;96012.34;5054557;28;20643;-68
2020/12/12 03:20:06;;;;;;;16.30;10.43;;;7.10;93.60;;;6.60;88.56;96017.50;5057301;28;20634;-68
2020/12/12 03:22:34;;;;;;;21.23;12.60;;;7.10;93.60;;;6.61;89.06;96006.19;5055710;28;20670;-68
2020/12/12 03:25:03;;;;;;;19.60;11.93;;;7.10;93.70;;;6.62;88.91;96015.59;5072176;28;20731;-68
2020/12/12 03:27:31;;;;;;;21.87;12.00;;;7.10;93.70;;;6.60;88.27;96009.75;5069603;28;21204;-70
2020/12/12 03:29:59;;;;;;;22.60;12.73;;;7.10;93.60;;;6.60;88.40;96012.34;5063955;28;20701;-68
2020/12/12 03:32:32;;;;;;;16.33;10.80;;;7.10;93.60;;;6.60;88.14;96023.50;5066596;28;20750;-68
2020/12/12 03:35:01;;;;;;;22.37;13.17;;;7.10;93.60;;;6.57;88.21;96018.59;5068408;28;20655;-68
2020/12/12 03:37:28;;;;;;;21.63;12.13;;;7.00;93.60;;;6.59;88.15;96008.91;5060443;28;20671;-68
2020/12/12 03:39:56;;;;;;;17.40;11.30;;;7.00;93.60;;;6.56;88.42;96016.94;5066033;28;21291;-68
2020/12/12 03:42:23;;;;;;;16.43;9.60;;;7.00;93.50;;;6.56;88.54;96010.94;5053064;28;20616;-68
2020/12/12 03:44:51;;;;;;;18.87;11.43;;;7.00;93.60;;;6.57;88.34;96010.81;5063738;28;20672;-68
2020/12/12 03:47:18;;;;;;;17.53;10.60;;;7.00;93.70;;;6.58;88.53;96021.97;5063259;28;20641;-68
2020/12/12 03:49:47;;;;;;;20.63;12.10;;;7.00;93.80;;;6.60;88.96;96012.34;5055493;28;20621;-68
2020/12/12 03:52:15;;;;;;;25.83;13.00;;;7.00;93.80;;;6.61;88.87;96014.78;5054748;28;21441;-68
2020/12/12 03:54:43;;;;;;;19.33;11.50;;;7.00;93.80;;;6.58;88.72;96014.22;5056499;28;20712;-68
2020/12/12 03:57:12;;;;;;;25.70;13.87;;;7.00;93.70;;;6.56;88.42;96016.94;5052957;28;21101;-69
2020/12/12 03:59:39;;;;;;;23.87;13.23;;;7.00;93.70;;;6.55;89.09;96019.66;5073377;28;20692;-69
2020/12/12 04:02:07;;;;;;;32.13;14.13;;;7.00;93.80;;;6.56;88.67;96026.47;5057487;28;21254;-69
2020/12/12 04:04:35;;;;;;;21.63;11.73;;;7.00;93.90;;;6.57;88.35;96026.34;5062017;28;20675;-69
2020/12/12 04:07:03;;;;;;;16.43;10.77;;;7.00;93.90;;;6.57;88.75;96028.94;5071227;28;21176;-69
2020/12/12 04:09:31;;;;;;;19.07;11.70;;;7.00;93.90;;;6.58;88.67;96027.16;5064364;28;21100;-68
2020/12/12 04:11:58;;;;;;;18.77;11.33;;;7.10;93.90;;;6.58;89.15;96035.78;5055422;28;20655;-69
2020/12/12 04:14:25;;;;;;;19.90;11.30;;;7.00;93.80;;;6.59;89.16;96034.00;5066612;28;20747;-69
2020/12/12 04:16:53;;;;;;;17.43;11.90;;;7.10;93.90;;;6.60;88.81;96030.47;5060983;28;21199;-68
2020/12/12 04:19:21;;;;;;;15.73;10.60;;;7.10;93.90;;;6.61;88.75;96032.91;5066365;28;20654;-68
2020/12/12 04:21:49;;;;;;;17.23;10.13;;;7.10;93.90;;;6.61;88.53;96043.28;5057295;28;20731;-69
2020/12/12 04:24:17;;;;;;;18.10;11.30;;;7.10;93.90;;;6.62;88.55;96046.66;5057420;28;20647;-68
2020/12/12 04:26:45;;;;;;;15.70;10.37;;;7.10;93.80;;;6.63;88.29;96048.28;5069742;28;21211;-68
2020/12/12 04:29:13;;;;;;;14.40;10.00;;;7.10;93.80;;;6.61;88.55;96050.19;5060330;28;20623;-69
2020/12/12 04:31:40;;;;;;;14.23;10.30;;;7.10;93.80;;;6.61;88.54;96045.03;5055282;28;20631;-69
2020/12/12 04:34:09;;;;;;;16.00;10.27;;;7.10;93.80;;;6.61;88.47;96037.25;5061324;28;20656;-68
2020/12/12 04:36:37;;;;;;;18.83;11.00;;;7.10;93.80;;;6.61;88.70;96048.44;5072909;28;20716;-68
2020/12/12 04:39:04;;;;;;;14.77;9.70;;;7.10;93.90;;;6.62;88.68;96049.25;5073382;28;20656;-69
2020/12/12 04:41:35;;;;;;;17.13;10.37;;;7.10;93.90;;;6.66;88.94;96046.28;5067114;28;20625;-69
2020/12/12 04:44:03;;;;;;;16.10;9.57;;;7.10;93.90;;;6.66;88.53;96054.06;5073135;28;20625;-69
2020/12/12 04:46:31;;;;;;;15.63;9.90;;;7.10;93.80;;;6.67;89.14;96049.69;5069204;28;20616;-68
2020/12/12 04:48:59;;;;;;;14.90;10.43;;;7.10;93.80;;;6.69;88.82;96052.94;5064430;28;20635;-68
2020/12/12 04:51:27;;;;;;;16.47;10.57;;;7.10;93.70;;;6.68;88.68;96053.91;5073528;28;20716;-68
2020/12/12 04:53:57;;;;;;;17.63;11.10;;;7.10;93.70;;;6.71;88.68;96051.06;5072665;28;20726;-69
2020/12/12 04:56:26;;;;;;;19.37;11.87;;;7.20;93.80;;;6.69;88.68;96047.75;5064389;28;20731;-69
2020/12/12 04:58:55;;;;;;;18.60;11.07;;;7.10;93.60;;;6.69;88.59;96050.34;5058198;28;20754;-68
2020/12/12 05:01:22;;;;;;;18.63;10.77;;;7.10;93.70;;;6.68;88.17;96044.38;5062420;28;20656;-69
2020/12/12 05:03:55;;;;;;;17.07;10.70;;;7.20;93.80;;;6.65;88.72;96049.00;5069497;28;20672;-68
2020/12/12 05:06:22;;;;;;;17.70;11.87;;;7.10;93.60;;;6.61;88.16;96039.84;5070627;28;21166;-68
2020/12/12 05:08:50;;;;;;;18.93;12.23;;;7.10;93.70;;;6.63;88.37;96037.94;5067574;28;20749;-69
2020/12/12 05:11:17;;;;;;;17.97;11.20;;;7.10;93.90;;;6.63;88.99;96043.94;5067333;28;20663;-69
2020/12/12 05:13:46;;;;;;;18.37;10.97;;;7.00;93.80;;;6.63;88.68;96051.72;5068045;28;20635;-69
2020/12/12 05:16:15;;;;;;;16.53;10.70;;;7.10;93.90;;;6.65;88.74;96046.41;5058197;28;21268;-69
2020/12/12 05:18:43;;;;;;;17.60;11.30;;;7.10;93.90;;;6.65;89.12;96049.81;5059934;28;21278;-68
2020/12/12 05:21:11;;;;;;;19.70;10.73;;;7.10;93.80;;;6.68;88.54;96051.31;5063221;28;20722;-69
2020/12/12 05:23:39;;;;;;;17.43;11.20;;;7.10;93.90;;;6.66;89.14;96059.22;5061985;28;20682;-68
2020/12/12 05:26:07;;;;;;;16.77;11.37;;;7.10;93.80;;;6.67;89.10;96047.91;5067362;28;20639;-69
2020/12/12 05:28:34;;;;;;;15.27;10.80;;;7.10;93.80;;;6.67;88.21;96049.69;5063808;28;21057;-68
2020/12/12 05:31:02;;;;;;;19.30;11.47;;;7.10;93.80;;;6.67;89.07;96050.50;5062443;28;21241;-68
2020/12/12 05:33:31;;;;;;;16.80;10.50;;;7.10;93.80;;;6.67;88.53;96052.28;5061962;28;20672;-68
2020/12/12 05:35:58;;;;;;;18.13;10.27;;;7.10;93.90;;;6.68;88.65;96054.72;5066677;28;20624;-68
2020/12/12 05:38:26;;;;;;;17.00;11.80;;;7.10;93.90;;;6.68;89.28;96057.31;5058357;28;21274;-67
2020/12/12 05:40:55;;;;;;;14.50;9.83;;;7.20;93.90;;;6.71;88.72;96064.00;5072610;28;20730;-71
2020/12/12 05:43:33;;;;;;;15.70;11.00;;;7.10;93.90;;;6.70;88.55;96059.78;5057518;28;21194;-67
2020/12/12 05:46:01;;;;;;;16.80;11.27;;;7.20;93.90;;;6.68;89.23;96062.50;5063151;28;21029;-68
2020/12/12 05:48:30;;;;;;;15.70;9.80;;;7.10;93.90;;;6.69;89.19;96058.97;5058527;28;21168;-74
2020/12/12 05:50:58;;;;;;;14.07;10.07;;;7.10;93.90;;;6.71;88.68;96058.84;5053226;28;20640;-68
2020/12/12 05:53:25;;;;;;;15.70;10.53;;;7.10;93.90;;;6.71;89.00;96061.44;5065162;28;21005;-69
2020/12/12 05:55:55;;;;;;;15.23;10.23;;;7.20;93.90;;;6.71;88.57;96059.66;5072276;28;21034;-69
2020/12/12 05:58:24;;;;;;;18.50;10.73;;;7.10;93.90;;;6.68;88.95;96061.69;5051450;28;20687;-69
2020/12/12 06:00:53;;;;;;;19.43;11.87;;;7.10;93.80;;;6.66;89.11;96068.75;5053412;28;20638;-69
2020/12/12 06:03:31;;;;;;;15.07;10.20;;;7.10;94.20;;;6.56;89.07;96060.94;5054976;28;22157;-69
2020/12/12 06:06:03;;;;;;;15.47;10.80;;;7.00;93.80;;;6.58;89.09;96064.25;5068374;28;20619;-69
2020/12/12 06:08:35;;;;;;;15.37;10.07;;;7.00;94.00;;;6.61;88.62;96068.31;5067822;28;20652;-68
2020/12/12 06:11:07;;;;;;;17.50;10.80;;;7.00;94.00;;;6.59;89.16;96068.47;5055423;28;20616;-68
2020/12/12 06:13:36;;;;;;;14.70;10.30;;;7.00;93.90;;;6.61;89.07;96069.16;5069234;28;20636;-68
2020/12/12 06:16:07;;;;;;;15.20;10.83;;;7.00;94.00;;;6.62;89.40;96059.63;5067308;28;21264;-69
2020/12/12 06:19:03;;;;;;;16.00;10.30;;;7.10;94.20;;;6.63;89.09;96080.19;5064090;28;20654;-71
2020/12/12 06:21:31;;;;;;;17.80;10.27;;;7.10;94.10;;;6.64;88.81;96070.66;5050909;28;20686;-69
2020/12/12 06:23:58;;;;;;;18.43;13.13;;;7.10;94.10;;;6.68;89.08;96083.22;5060068;28;20754;-69
2020/12/12 06:26:40;;;;;;;18.00;12.67;;;7.10;94.10;;;6.71;89.23;96076.97;5054603;28;20662;-69
2020/12/12 06:29:09;;;;;;;19.70;11.70;;;7.20;94.20;;;6.73;88.35;96075.88;5068332;28;20787;-69
2020/12/12 06:31:37;;;;;;;15.70;10.50;;;7.20;94.10;;;6.74;88.94;96087.88;5072834;28;20730;-69
2020/12/12 06:34:05;;;;;;;16.43;10.80;;;7.20;94.00;;;6.74;88.79;96087.06;5071783;28;20627;-69
2020/12/12 06:36:34;;;;;;;17.53;10.10;;;7.20;93.90;;;6.71;88.93;96087.31;5071911;28;20609;-69
2020/12/12 06:39:19;;;;;;;17.73;11.27;;;7.20;93.90;;;6.67;88.86;96083.34;5063086;28;21092;-69
2020/12/12 06:41:50;;;;;;;19.60;12.50;;;7.20;93.80;;;6.66;89.14;96089.47;5051742;28;20632;-69
2020/12/12 06:44:35;;;;;;;16.97;11.40;;;7.10;93.70;;;6.65;88.71;96098.19;5052038;28;20645;-70
2020/12/12 06:47:05;;;;;;;17.73;10.40;;;7.10;93.80;;;6.66;88.29;96097.22;5052099;28;20623;-69
2020/12/12 06:49:34;;;;;;;19.50;11.57;;;7.10;93.80;;;6.66;88.50;96099.81;5062627;28;20636;-71
2020/12/12 06:52:02;;;;;;;17.90;10.60;;;7.10;93.90;;;6.66;88.50;96092.06;5071102;28;20611;-70
2020/12/12 06:54:30;;;;;;;18.63;11.50;;;7.10;93.90;;;6.64;88.29;96106.91;5070122;28;20731;-70
2020/12/12 06:56:58;;;;;;;18.03;11.40;;;7.10;94.10;;;6.65;88.58;96113.75;5071652;28;20704;-72
2020/12/12 06:59:28;;;;;;;17.37;11.23;;;7.10;93.80;;;6.63;88.70;96110.44;5056618;28;20711;-70
2020/12/12 07:01:59;;;;;;;14.90;10.40;;;7.10;93.90;;;6.65;88.93;96108.56;5052185;28;20629;-67
2020/12/12 07:04:30;;;;;;;16.67;10.97;;;7.10;93.90;;;6.63;89.29;96102.66;5053334;28;21334;-70
2020/12/12 07:07:09;;;;;;;13.67;9.63;;;7.10;94.00;;;6.64;88.79;96112.91;5060611;28;20740;-69
2020/12/12 07:09:38;;;;;;;16.30;11.00;;;7.10;94.00;;;6.66;88.90;96120.53;5065224;28;20624;-69
2020/12/12 07:12:08;;;;;;;16.80;10.40;;;7.10;94.00;;;6.66;88.98;96115.34;5067909;28;20685;-70
2020/12/12 07:14:38;;;;;;;15.70;11.23;;;7.10;93.90;;;6.69;88.59;96117.69;5060702;28;20632;-69
2020/12/12 07:17:06;;;;;;;17.50;10.73;;;7.10;93.90;;;6.70;88.40;96111.56;5055209;28;20640;-70
2020/12/12 07:19:37;;;;;;;16.17;11.03;;;7.10;93.90;;;6.70;88.71;96124.53;5068591;28;20656;-69
2020/12/12 07:22:08;;;;;;;21.90;11.73;;;7.10;94.00;;;6.72;89.33;96130.38;5066880;28;21241;-69
2020/12/12 07:24:37;;;;;;;15.90;11.07;;;7.20;94.30;;;6.73;88.70;96132.03;5063046;28;20641;-69
2020/12/12 07:27:06;;;;;;;17.37;11.73;;;7.20;94.00;;;6.71;89.09;96134.75;5064090;28;20670;-69
2020/12/12 07:29:34;;;;;;;22.57;15.10;;;7.20;94.10;;;6.75;88.90;96130.13;5052930;28;20736;-69
2020/12/12 07:32:02;;;;;;;28.07;17.83;;;7.20;94.10;;;6.76;88.97;96132.59;5062090;28;20633;-69
2020/12/12 07:34:29;;;;;;;30.80;20.43;;;7.20;94.10;;;6.80;88.96;96139.16;5070302;28;20667;-69
2020/12/12 07:37:03;;;;;;;40.23;24.67;;;7.20;94.10;;;6.84;88.61;96145.72;5070131;28;20719;-69
2020/12/12 07:39:33;;;;;;;25.00;16.47;;;7.20;94.00;;;6.85;89.22;96146.53;5059662;28;20682;-70
2020/12/12 07:42:03;;;;;;;26.23;17.13;;;7.30;94.10;;;6.92;88.61;96148.47;5069399;28;21179;-69
2020/12/12 07:44:36;;;;;;;21.13;14.00;;;7.30;94.20;;;6.97;88.54;96155.84;5065909;28;20204;-70
2020/12/12 07:47:06;;;;;;;22.03;13.70;;;7.30;94.20;;;7.02;88.82;96156.28;5066257;28;20614;-69
2020/12/12 07:49:37;;;;;;;28.30;15.40;;;7.40;94.50;;;7.06;88.79;96158.47;5070698;28;20652;-70
2020/12/12 07:52:08;;;;;;;19.60;13.93;;;7.40;94.00;;;7.08;88.43;96170.38;5074888;28;20738;-69
2020/12/12 07:54:40;;;;;;;28.40;16.47;;;7.50;93.80;;;7.05;87.55;96168.03;5069741;28;20727;-69
2020/12/12 07:57:11;;;;;;;23.60;14.43;;;7.50;93.60;;;7.05;88.46;96173.22;5060518;28;20644;-68
2020/12/12 07:59:39;;;;;;;25.30;14.90;;;7.50;93.70;;;7.07;88.79;96167.91;5067349;28;21269;-69
2020/12/12 08:02:09;;;;;;;30.27;20.33;;;7.50;93.60;;;7.08;87.64;96180.72;5068561;28;20633;-69
2020/12/12 08:04:38;;;;;;;22.53;14.27;;;7.50;93.60;;;7.09;88.13;96182.34;5056635;28;20660;-69
2020/12/12 08:07:18;;;;;;;26.40;16.77;;;7.50;93.70;;;7.11;89.14;96180.47;5060930;28;20756;-72
2020/12/12 08:09:49;;;;;;;22.37;13.53;;;7.50;93.70;;;7.11;89.29;96185.66;5066326;28;20666;-72
2020/12/12 08:12:31;;;;;;;33.13;22.80;;;7.50;93.80;;;7.07;88.48;96186.03;5055893;28;20654;-69
2020/12/12 08:15:09;;;;;;;21.20;15.40;;;7.50;93.80;;;7.08;88.03;96188.50;5062389;28;21213;-70
2020/12/12 08:17:36;;;;;;;20.70;12.63;;;7.50;93.70;;;7.11;88.34;96190.00;5066662;28;20704;-69
2020/12/12 08:20:04;;;;;;;16.47;11.70;;;7.60;94.00;;;7.10;88.53;96194.38;5062627;28;20672;-67
2020/12/12 08:22:36;;;;;;;25.43;17.90;;;7.60;93.90;;;7.15;88.80;96196.56;5061012;28;20728;-68
2020/12/12 08:25:07;;;;;;;20.43;15.63;;;7.60;93.90;;;7.18;88.59;96197.13;5061230;28;22409;-69
2020/12/12 08:27:35;;;;;;;13.10;9.90;;;7.60;93.90;;;7.22;88.15;96201.09;5065833;28;20730;-68
2020/12/12 08:30:07;;;;;;;9.63;6.90;;;7.70;93.80;;;7.28;87.85;96198.00;5057570;28;20656;-68
2020/12/12 08:32:39;;;;;;;11.10;7.80;;;7.70;93.70;;;7.37;88.15;96206.75;5059322;28;21086;-68
2020/12/12 08:35:20;;;;;;;13.47;9.40;;;7.80;93.70;;;7.43;87.30;96212.22;5074356;28;21185;-67
2020/12/12 08:37:57;;;;;;;9.63;7.00;;;7.80;93.50;;;7.45;86.27;96223.28;5059602;28;20687;-68
2020/12/12 08:40:28;;;;;;;16.30;11.80;;;7.80;93.30;;;7.50;88.15;96226.28;5069664;28;21223;-68
2020/12/12 08:43:02;;;;;;;26.07;17.00;;;7.90;93.40;;;7.53;86.51;96233.81;5058425;28;21526;-73
2020/12/12 08:45:29;;;;;;;44.07;26.83;;;7.90;93.20;;;7.56;87.30;96234.38;5061045;28;20829;-67
2020/12/12 08:48:07;;;;;;;17.17;12.43;;;8.00;93.10;;;7.61;87.67;96239.19;5056297;28;20640;-68
2020/12/12 08:50:51;;;;;;;14.00;9.60;;;8.00;93.10;;;7.64;86.75;96236.31;5059641;28;22285;-68
2020/12/12 08:53:31;;;;;;;15.00;9.90;;;8.00;93.20;;;7.69;86.86;96239.34;5065823;28;20620;-67
2020/12/12 08:56:08;;;;;;;18.50;13.30;;;8.10;93.20;;;7.75;87.19;96244.78;5055369;28;21209;-68
2020/12/12 08:58:39;;;;;;;8.73;7.13;;;8.20;93.30;;;7.81;88.08;96243.47;5067368;28;20623;-68
2020/12/12 09:01:32;;;;;;;10.30;6.67;;;8.20;93.40;;;7.86;86.68;96256.84;5063018;28;21204;-69
2020/12/12 09:04:06;;;;;;;7.93;5.50;;;8.30;93.70;;;7.91;86.90;96254.66;5059641;28;21401;-68
2020/12/12 09:06:35;;;;;;;10.70;7.33;;;8.30;93.50;;;7.92;86.61;96256.31;5071248;28;20619;-68
2020/12/12 09:09:06;;;;;;;6.27;4.87;;;8.30;93.40;;;7.93;86.86;96269.16;5054398;28;20650;-68
2020/12/12 09:11:36;;;;;;;6.63;4.77;;;8.30;93.30;;;7.96;86.61;96269.69;5065282;28;20643;-68
2020/12/12 09:14:04;;;;;;;5.90;4.40;;;8.30;93.30;;;8.00;86.66;96268.47;5062287;28;20632;-67
2020/12/12 09:16:32;;;;;;;8.27;4.80;;;8.40;93.30;;;8.04;86.95;96277.66;5063429;28;20738;-67
2020/12/12 09:19:00;;;;;;;6.60;4.77;;;8.50;93.50;;;8.08;86.93;96276.41;5061932;28;20646;-68
2020/12/12 09:21:31;;;;;;;7.00;4.90;;;8.50;93.60;;;8.14;88.70;96275.09;5056290;28;20982;-68
2020/12/12 09:23:59;;;;;;;7.87;5.63;;;8.50;93.70;;;8.19;88.66;96271.13;5055215;28;20742;-68
2020/12/12 09:26:27;;;;;;;7.10;4.60;;;8.60;93.80;;;8.22;88.66;96273.44;5066631;28;21204;-68
2020/12/12 09:28:55;;;;;;;7.73;5.00;;;8.60;93.70;;;8.31;88.78;96283.03;5070752;28;21232;-68
2020/12/12 09:31:24;;;;;;;6.00;4.40;;;8.70;94.00;;;8.37;87.76;96282.50;5059291;28;20671;-68
2020/12/12 09:33:52;;;;;;;6.87;5.07;;;8.70;94.10;;;8.37;88.51;96289.47;5067538;28;20687;-66
2020/12/12 09:36:20;;;;;;;6.13;4.60;;;8.80;94.10;;;8.37;88.18;96292.88;5071867;28;20629;-67
2020/12/12 09:38:47;;;;;;;5.60;4.50;;;8.70;94.10;;;8.36;88.57;96301.66;5068375;28;21178;-67
2020/12/12 09:41:15;;;;;;;6.30;4.47;;;8.80;94.10;;;8.33;88.32;96304.50;5061519;28;20762;-67
2020/12/12 09:43:43;;;;;;;5.37;3.80;;;8.70;94.10;;;8.29;89.45;96308.31;5064829;28;20640;-70
2020/12/12 09:46:12;;;;;;;6.97;4.40;;;8.70;94.20;;;8.28;89.10;96311.06;5072815;28;20622;-70
2020/12/12 09:48:41;;;;;;;5.60;4.67;;;8.70;94.40;;;8.26;88.89;96308.59;5069487;28;20624;-67
2020/12/12 09:51:10;;;;;;;5.10;3.97;;;8.70;94.60;;;8.27;90.47;96312.00;5073632;28;20964;-71
2020/12/12 09:53:38;;;;;;;7.20;4.97;;;8.70;94.70;;;8.29;89.61;96313.53;5062887;28;21087;-71
2020/12/12 09:56:06;;;;;;;5.77;4.13;;;8.70;94.80;;;8.30;90.15;96315.16;5055860;28;20688;-71
2020/12/12 09:58:34;;;;;;;6.10;4.53;;;8.70;94.90;;;8.30;89.82;96320.38;5054954;28;20693;-71
2020/12/12 10:01:01;;;;;;;6.07;4.40;;;8.70;94.90;;;8.28;89.15;96317.06;5063795;28;20662;-70
2020/12/12 10:03:30;;;;;;;8.43;4.87;;;8.70;94.80;;;8.25;90.79;96319.91;5064591;28;20702;-70
2020/12/12 10:05:57;;;;;;;7.20;5.05;;;8.70;94.80;;;8.28;89.76;96326.63;5058082;28;21091;-70
2020/12/12 10:08:27;;;;;;;7.50;5.80;;;8.70;94.90;;;8.37;90.43;96325.84;5060110;28;20764;-70
2020/12/12 10:10:55;;;;;;;5.40;4.57;;;8.70;95.10;;;8.40;89.57;96334.16;5071466;28;20606;-70
2020/12/12 10:13:22;;;;;;;5.20;4.30;;;8.80;95.10;;;8.44;89.55;96332.94;5061425;28;21252;-76
2020/12/12 10:15:50;;;;;;;4.37;3.73;;;8.80;95.00;;;8.45;89.67;96337.19;5068663;28;20733;-70
2020/12/12 10:18:17;;;;;;;6.00;4.60;;;8.90;94.90;;;8.50;89.27;96332.41;5070405;28;20630;-71
2020/12/12 10:20:50;;;;;;;5.90;4.40;;;8.80;94.80;;;8.50;89.17;96342.81;5052935;28;20673;-70
2020/12/12 10:23:18;;;;;;;4.53;3.70;;;8.90;94.70;;;8.52;89.24;96338.28;5055151;28;20984;-70
2020/12/12 10:25:47;;;;;;;5.13;4.10;;;8.90;94.60;;;8.56;89.99;96348.28;5054153;28;20991;-70
2020/12/12 10:28:18;;;;;;;6.27;4.60;;;8.90;94.80;;;8.55;89.89;96340.59;5059645;28;20690;-70
2020/12/12 10:30:45;;;;;;;5.97;4.47;;;9.00;95.10;;;8.52;89.18;96341.72;5060314;28;20640;-71
2020/12/12 10:33:13;;;;;;;5.60;4.27;;;8.90;94.70;;;8.50;89.33;96340.19;5063146;28;20616;-71